This is the latest recevied weather packets stored in our database for station/object DH5DY-6. If no packets are shown the sender has not sent any weather packets the latest 10 day(s).
| Time | Temp. | Humidity | Pressure | Rain* | Wind** | Luminosity | Snow |
|---|---|---|---|---|---|---|---|
| 1777412274 | 10° C | 49% | 1021.2 hPa | 0 mm | - | 0 W/m² | - |
| 1777411074 | 10.56° C | 49% | 1020.9 hPa | 0 mm | - | 0 W/m² | - |
| 1777409873 | 11.11° C | 49% | 1020.7 hPa | 0 mm | - | 0 W/m² | - |
| 1777407473 | 11.11° C | 49% | 1020.9 hPa | 0 mm | - | 0 W/m² | - |
| 1777405672 | 12.22° C | 48% | 1020.5 hPa | 0 mm | - | 0 W/m² | - |
| 1777403873 | 13.33° C | 43% | 1019.9 hPa | 0 mm | - | 0 W/m² | - |
| 1777402072 | 14.44° C | 41% | 1019.6 hPa | 0 mm | - | 7 W/m² | - |
| 1777400873 | 15° C | 40% | 1019.4 hPa | 0 mm | - | 14 W/m² | - |
| 1777399672 | 16.11° C | 40% | 1019 hPa | 0 mm | - | 44 W/m² | - |
| 1777398472 | 16.67° C | 38% | 1018.7 hPa | 0 mm | - | 88 W/m² | - |
| 1777393070 | 18.33° C | 33% | 1018.3 hPa | 0 mm | - | 330 W/m² | - |
| 1777391870 | 18.33° C | 29% | 1018.4 hPa | 0 mm | - | 383 W/m² | - |
| 1777391270 | 18.89° C | 27% | 1018.4 hPa | 0 mm | - | 413 W/m² | - |
| 1777390671 | 18.89° C | 33% | 1018.5 hPa | 0 mm | - | 434 W/m² | - |
| 1777390070 | 18.89° C | 31% | 1018.5 hPa | 0 mm | - | 462 W/m² | - |
| 1777389470 | 18.33° C | 31% | 1018.5 hPa | 0 mm | - | 487 W/m² | - |
| 1777388270 | 18.89° C | 34% | 1018.6 hPa | 0 mm | - | 527 W/m² | - |
| 1777387670 | 18.89° C | 34% | 1018.7 hPa | 0 mm | - | 541 W/m² | - |
| 1777386470 | 19.44° C | 33% | 1018.4 hPa | 0 mm | - | 589 W/m² | - |
| 1777385869 | 18.89° C | 34% | 1018.6 hPa | 0 mm | - | 610 W/m² | - |
| 1777384669 | 18.89° C | 33% | 1018.5 hPa | 0 mm | - | 497 W/m² | - |
| 1777384070 | 19.44° C | 33% | 1018.6 hPa | 0 mm | - | 661 W/m² | - |
| 1777382869 | 19.44° C | 33% | 1018.5 hPa | 0 mm | - | 684 W/m² | - |
| 1777382270 | 19.44° C | 34% | 1018.6 hPa | 0 mm | - | 705 W/m² | - |
| 1777381069 | 18.89° C | 32% | 1018.5 hPa | 0 mm | - | 724 W/m² | - |
* Rain latest hour (hover to see other rain measurements)
** Current wind speed in m/s (hover to see current wind gust speed)